KLM219 EHAM-CYVR
Flight info
| Callsign | KLM219 |
|---|---|
| Flight time | N/A |
| Altitude | 34000 |
| Route | ANDIK Z733 KONOM DCT SUTEB DCT KARLI DCT ALLOY DCT IPTON/M084F340 DCT 65N020W 65N030W 66N040W 67N050W DCT EPMAN/N0493F340 DCT YZS DCT YMM DCT YZU DCT NADPI DCT MERYT DCT BOOTH CANUC6 |
| Aircraft | B77W/H-SDE1E2E3FGHIJ2J3J4J5M1RWXY/LB1D1 |
Departure
| Time | 2026-04-28 11:32 |
|---|---|
| Airport | Amsterdam Airport Schiphol (EHAM) |
Arrival
| Time | N/A |
|---|---|
| Airport | Vancouver International Airport (CYVR) |
| Time | Latitude | Longitude | Altitude | Speed | Heading |
|---|---|---|---|---|---|
| 2026-04-28 10:46 | 52.31373 | 4.76285 | 4 ft | 0 kts | 206° |
| 2026-04-28 11:11 | 52.31389 | 4.76298 | 4 ft | 4 kts | 205° |
| 2026-04-28 11:11 | 52.31414 | 4.76316 | 6 ft | 4 kts | 205° |
| 2026-04-28 11:12 | 52.31437 | 4.76336 | 5 ft | 4 kts | 219° |
| 2026-04-28 11:12 | 52.31450 | 4.76360 | 4 ft | 4 kts | 293° |
| 2026-04-28 11:12 | 52.31436 | 4.76387 | 6 ft | 4 kts | 338° |
| 2026-04-28 11:12 | 52.31415 | 4.76398 | 5 ft | 4 kts | 343° |
| 2026-04-28 11:13 | 52.31389 | 4.76411 | 6 ft | 4 kts | 342° |
| 2026-04-28 11:13 | 52.31370 | 4.76421 | 6 ft | 0 kts | 342° |
| 2026-04-28 11:16 | 52.31376 | 4.76418 | 6 ft | 4 kts | 343° |
| 2026-04-28 11:16 | 52.31435 | 4.76388 | 6 ft | 11 kts | 343° |
| 2026-04-28 11:17 | 52.31502 | 4.76332 | 4 ft | 11 kts | 319° |
| 2026-04-28 11:17 | 52.31535 | 4.76224 | 4 ft | 11 kts | 277° |
| 2026-04-28 11:17 | 52.31533 | 4.76100 | 4 ft | 11 kts | 267° |
| 2026-04-28 11:17 | 52.31529 | 4.75975 | 4 ft | 11 kts | 266° |
| 2026-04-28 11:18 | 52.31525 | 4.75851 | 4 ft | 11 kts | 266° |
| 2026-04-28 11:18 | 52.31520 | 4.75727 | 4 ft | 11 kts | 266° |
| 2026-04-28 11:18 | 52.31516 | 4.75602 | 4 ft | 11 kts | 267° |
| 2026-04-28 11:18 | 52.31513 | 4.75478 | 4 ft | 11 kts | 267° |
| 2026-04-28 11:19 | 52.31509 | 4.75353 | 3 ft | 11 kts | 267° |
| 2026-04-28 11:19 | 52.31504 | 4.75229 | 4 ft | 11 kts | 266° |
| 2026-04-28 11:19 | 52.31499 | 4.75101 | 4 ft | 11 kts | 266° |
| 2026-04-28 11:19 | 52.31496 | 4.74973 | 4 ft | 11 kts | 267° |
| 2026-04-28 11:20 | 52.31492 | 4.74845 | 4 ft | 11 kts | 266° |
| 2026-04-28 11:20 | 52.31486 | 4.74717 | 4 ft | 11 kts | 266° |
| 2026-04-28 11:20 | 52.31482 | 4.74589 | 4 ft | 11 kts | 267° |
| 2026-04-28 11:20 | 52.31478 | 4.74459 | 4 ft | 11 kts | 266° |
| 2026-04-28 11:21 | 52.31488 | 4.74335 | 4 ft | 11 kts | 305° |
| 2026-04-28 11:21 | 52.31562 | 4.74301 | 4 ft | 11 kts | 360° |
| 2026-04-28 11:21 | 52.31642 | 4.74306 | 4 ft | 11 kts | 3° |
| 2026-04-28 11:21 | 52.31722 | 4.74314 | 4 ft | 11 kts | 3° |
| 2026-04-28 11:22 | 52.31801 | 4.74321 | 4 ft | 11 kts | 3° |
| 2026-04-28 11:22 | 52.31881 | 4.74328 | 4 ft | 11 kts | 3° |
| 2026-04-28 11:22 | 52.31960 | 4.74334 | 4 ft | 11 kts | 0° |
| 2026-04-28 11:22 | 52.32022 | 4.74267 | 4 ft | 11 kts | 295° |
| 2026-04-28 11:23 | 52.32033 | 4.74140 | 3 ft | 11 kts | 274° |
| 2026-04-28 11:23 | 52.32038 | 4.74004 | 3 ft | 14 kts | 273° |
| 2026-04-28 11:23 | 52.32044 | 4.73840 | 4 ft | 14 kts | 273° |
| 2026-04-28 11:23 | 52.32050 | 4.73676 | 4 ft | 14 kts | 273° |
| 2026-04-28 11:24 | 52.32056 | 4.73511 | 4 ft | 14 kts | 275° |
| 2026-04-28 11:24 | 52.32092 | 4.73361 | 4 ft | 14 kts | 309° |
| 2026-04-28 11:24 | 52.32165 | 4.73247 | 4 ft | 14 kts | 318° |
| 2026-04-28 11:24 | 52.32241 | 4.73140 | 4 ft | 14 kts | 319° |
| 2026-04-28 11:25 | 52.32318 | 4.73034 | 4 ft | 14 kts | 320° |
| 2026-04-28 11:25 | 52.32395 | 4.72927 | 4 ft | 14 kts | 320° |
| 2026-04-28 11:25 | 52.32471 | 4.72819 | 4 ft | 14 kts | 318° |
| 2026-04-28 11:25 | 52.32547 | 4.72711 | 4 ft | 14 kts | 319° |
| 2026-04-28 11:26 | 52.32623 | 4.72604 | 4 ft | 14 kts | 319° |
| 2026-04-28 11:26 | 52.32695 | 4.72490 | 4 ft | 14 kts | 312° |
| 2026-04-28 11:26 | 52.32762 | 4.72368 | 4 ft | 14 kts | 311° |
| 2026-04-28 11:26 | 52.32828 | 4.72244 | 4 ft | 14 kts | 311° |
| 2026-04-28 11:27 | 52.32894 | 4.72120 | 4 ft | 14 kts | 311° |
| 2026-04-28 11:27 | 52.32961 | 4.71997 | 4 ft | 14 kts | 311° |
| 2026-04-28 11:27 | 52.33027 | 4.71874 | 4 ft | 14 kts | 311° |
| 2026-04-28 11:27 | 52.33094 | 4.71751 | 4 ft | 14 kts | 311° |
| 2026-04-28 11:28 | 52.33144 | 4.71612 | 4 ft | 14 kts | 279° |
| 2026-04-28 11:28 | 52.33108 | 4.71466 | 4 ft | 14 kts | 224° |
| 2026-04-28 11:28 | 52.33033 | 4.71357 | 4 ft | 14 kts | 221° |
| 2026-04-28 11:28 | 52.32957 | 4.71249 | 4 ft | 14 kts | 221° |
| 2026-04-28 11:29 | 52.32898 | 4.71163 | 4 ft | 10 kts | 224° |
| 2026-04-28 11:29 | 52.32865 | 4.71061 | 3 ft | 10 kts | 259° |
| 2026-04-28 11:29 | 52.32867 | 4.70959 | 3 ft | 3 kts | 277° |
| 2026-04-28 11:29 | 52.32873 | 4.70924 | 3 ft | 3 kts | 300° |
| 2026-04-28 11:30 | 52.32895 | 4.70903 | 3 ft | 5 kts | 340° |
| 2026-04-28 11:30 | 52.32926 | 4.70898 | 2 ft | 0 kts | 3° |
| 2026-04-28 11:30 | 52.32928 | 4.70899 | 2 ft | 5 kts | 3° |
| 2026-04-28 11:31 | 52.33180 | 4.70923 | 0 ft | 71 kts | 3° |
| 2026-04-28 11:31 | 52.33890 | 4.70988 | 4 ft | 131 kts | 3° |
| 2026-04-28 11:31 | 52.34973 | 4.71084 | 29 ft | 174 kts | 4° |
| 2026-04-28 11:31 | 52.36192 | 4.71158 | 425 ft | 179 kts | 7° |
| 2026-04-28 11:32 | 52.37450 | 4.71275 | 835 ft | 185 kts | 7° |
| 2026-04-28 11:32 | 52.38708 | 4.71393 | 1513 ft | 183 kts | 9° |
| 2026-04-28 11:32 | 52.40055 | 4.71550 | 1732 ft | 205 kts | 8° |
| 2026-04-28 11:32 | 52.41556 | 4.71688 | 1978 ft | 229 kts | 7° |
| 2026-04-28 11:33 | 52.43185 | 4.71816 | 2444 ft | 240 kts | 8° |
| 2026-04-28 11:33 | 52.44894 | 4.71988 | 2981 ft | 250 kts | 9° |
| 2026-04-28 11:33 | 52.46649 | 4.72185 | 3681 ft | 255 kts | 8° |
| 2026-04-28 11:33 | 52.48435 | 4.72343 | 4395 ft | 258 kts | 7° |
| 2026-04-28 11:34 | 52.50228 | 4.72509 | 5140 ft | 259 kts | 7° |
| 2026-04-28 11:34 | 52.52034 | 4.72681 | 5841 ft | 259 kts | 9° |
| 2026-04-28 11:34 | 52.53734 | 4.73464 | 6429 ft | 255 kts | 35° |
| 2026-04-28 11:34 | 52.54941 | 4.75545 | 6963 ft | 254 kts | 65° |
| 2026-04-28 11:35 | 52.55480 | 4.78276 | 7509 ft | 255 kts | 75° |
| 2026-04-28 11:35 | 52.56024 | 4.81088 | 8024 ft | 261 kts | 71° |
| 2026-04-28 11:35 | 52.56589 | 4.83919 | 8716 ft | 262 kts | 73° |
| 2026-04-28 11:35 | 52.57134 | 4.86805 | 9327 ft | 266 kts | 73° |
| 2026-04-28 11:36 | 52.57685 | 4.89725 | 9998 ft | 269 kts | 73° |
| 2026-04-28 11:36 | 52.58272 | 4.92641 | 10571 ft | 270 kts | 66° |
| 2026-04-28 11:36 | 52.59483 | 4.95111 | 10755 ft | 293 kts | 35° |
| 2026-04-28 11:36 | 52.61466 | 4.96276 | 10925 ft | 319 kts | 8° |
| 2026-04-28 11:37 | 52.63746 | 4.96515 | 11086 ft | 338 kts | 6° |
| 2026-04-28 11:37 | 52.66164 | 4.96754 | 11261 ft | 359 kts | 6° |
| 2026-04-28 11:37 | 52.68668 | 4.97007 | 11757 ft | 370 kts | 6° |
| 2026-04-28 11:37 | 52.71267 | 4.97271 | 12439 ft | 377 kts | 7° |
| 2026-04-28 11:38 | 52.73940 | 4.97547 | 13310 ft | 381 kts | 7° |
| 2026-04-28 11:38 | 52.76557 | 4.97822 | 14175 ft | 385 kts | 7° |
| 2026-04-28 11:38 | 52.79246 | 4.98117 | 14925 ft | 389 kts | 7° |
| 2026-04-28 11:38 | 52.81960 | 4.98414 | 15675 ft | 393 kts | 7° |
| 2026-04-28 11:39 | 52.84711 | 4.98717 | 16435 ft | 398 kts | 7° |
| 2026-04-28 11:39 | 52.87487 | 4.99028 | 17179 ft | 402 kts | 7° |
| 2026-04-28 11:39 | 52.90296 | 4.99346 | 17912 ft | 407 kts | 7° |
| 2026-04-28 11:39 | 52.93125 | 4.99666 | 18702 ft | 409 kts | 7° |
| 2026-04-28 11:40 | 52.95970 | 4.99985 | 19414 ft | 410 kts | 7° |
| 2026-04-28 11:40 | 52.98824 | 5.00313 | 20081 ft | 414 kts | 7° |
| 2026-04-28 11:40 | 53.01710 | 5.00641 | 20750 ft | 416 kts | 7° |
| 2026-04-28 11:40 | 53.04611 | 5.00971 | 21401 ft | 420 kts | 7° |
| 2026-04-28 11:41 | 53.07529 | 5.01304 | 22049 ft | 423 kts | 7° |
| 2026-04-28 11:41 | 53.10481 | 5.01641 | 22675 ft | 426 kts | 7° |
| 2026-04-28 11:41 | 53.13452 | 5.01981 | 23296 ft | 429 kts | 7° |
| 2026-04-28 11:41 | 53.16441 | 5.02324 | 23905 ft | 432 kts | 7° |
| 2026-04-28 11:42 | 53.19444 | 5.02668 | 24472 ft | 433 kts | 7° |
| 2026-04-28 11:42 | 53.22455 | 5.03013 | 25041 ft | 434 kts | 7° |
| 2026-04-28 11:42 | 53.25478 | 5.03360 | 25572 ft | 436 kts | 8° |
| 2026-04-28 11:42 | 53.28507 | 5.03709 | 26093 ft | 437 kts | 8° |
| 2026-04-28 11:43 | 53.31548 | 5.04060 | 26596 ft | 439 kts | 8° |
| 2026-04-28 11:43 | 53.34608 | 5.04414 | 27095 ft | 441 kts | 8° |
| 2026-04-28 11:43 | 53.37680 | 5.04770 | 27582 ft | 443 kts | 8° |
| 2026-04-28 11:43 | 53.40759 | 5.05127 | 28052 ft | 445 kts | 8° |
| 2026-04-28 11:44 | 53.43850 | 5.05486 | 28529 ft | 446 kts | 8° |
| 2026-04-28 11:44 | 53.46952 | 5.05846 | 28978 ft | 448 kts | 8° |
| 2026-04-28 11:44 | 53.49014 | 5.06086 | 29230 ft | 449 kts | 8° |
| 2026-04-28 11:44 | 53.52138 | 5.06451 | 29633 ft | 451 kts | 9° |
| 2026-04-28 11:45 | 53.55274 | 5.06816 | 29992 ft | 453 kts | 9° |
| 2026-04-28 11:45 | 53.58422 | 5.07184 | 30361 ft | 454 kts | 9° |
| 2026-04-28 11:45 | 53.61577 | 5.07552 | 30746 ft | 453 kts | 9° |
| 2026-04-28 11:45 | 53.64725 | 5.07918 | 31197 ft | 450 kts | 9° |
| 2026-04-28 11:46 | 53.67814 | 5.08274 | 31892 ft | 442 kts | 9° |
| 2026-04-28 11:46 | 53.70878 | 5.08631 | 32276 ft | 441 kts | 9° |
| 2026-04-28 11:46 | 53.73936 | 5.08993 | 32512 ft | 443 kts | 9° |
| 2026-04-28 11:46 | 53.77020 | 5.09360 | 32786 ft | 444 kts | 9° |
| 2026-04-28 11:47 | 53.80101 | 5.09726 | 33139 ft | 442 kts | 9° |
| 2026-04-28 11:47 | 53.83160 | 5.10088 | 33514 ft | 441 kts | 9° |
| 2026-04-28 11:47 | 53.86214 | 5.10449 | 33861 ft | 440 kts | 9° |
| 2026-04-28 11:47 | 53.89257 | 5.10809 | 34167 ft | 438 kts | 9° |
| 2026-04-28 11:48 | 53.92286 | 5.11219 | 34440 ft | 435 kts | 11° |
| 2026-04-28 11:48 | 53.95308 | 5.11629 | 34425 ft | 434 kts | 9° |
| 2026-04-28 11:48 | 54.01287 | 5.12270 | 34418 ft | 429 kts | 9° |
| 2026-04-28 11:49 | 54.07247 | 5.12945 | 34425 ft | 429 kts | 10° |
| 2026-04-28 11:49 | 54.13208 | 5.13659 | 34421 ft | 430 kts | 10° |
| 2026-04-28 11:50 | 54.19173 | 5.14382 | 34437 ft | 429 kts | 10° |
| 2026-04-28 11:50 | 54.25122 | 5.15102 | 34444 ft | 428 kts | 10° |
| 2026-04-28 11:51 | 54.31029 | 5.15817 | 34437 ft | 428 kts | 10° |
| 2026-04-28 11:51 | 54.36965 | 5.16537 | 34432 ft | 427 kts | 10° |
| 2026-04-28 11:52 | 54.42890 | 5.17258 | 34430 ft | 426 kts | 9° |
| 2026-04-28 11:52 | 54.48795 | 5.17977 | 34442 ft | 425 kts | 9° |
| 2026-04-28 11:53 | 54.54691 | 5.18699 | 34451 ft | 424 kts | 9° |
| 2026-04-28 11:53 | 54.60580 | 5.19421 | 34453 ft | 424 kts | 9° |
| 2026-04-28 11:54 | 54.66422 | 5.20141 | 34447 ft | 424 kts | 9° |
| 2026-04-28 11:54 | 54.72311 | 5.20868 | 34457 ft | 424 kts | 9° |
| 2026-04-28 11:55 | 54.78191 | 5.21597 | 34464 ft | 424 kts | 9° |
| 2026-04-28 11:55 | 54.84084 | 5.22328 | 34465 ft | 425 kts | 9° |
| 2026-04-28 11:56 | 54.89981 | 5.23062 | 34444 ft | 425 kts | 9° |
| 2026-04-28 11:56 | 54.95886 | 5.23800 | 34466 ft | 425 kts | 9° |
| 2026-04-28 11:57 | 55.01778 | 5.24536 | 34471 ft | 425 kts | 9° |
| 2026-04-28 11:57 | 55.07683 | 5.25278 | 34477 ft | 425 kts | 9° |
| 2026-04-28 11:58 | 55.13592 | 5.26022 | 34477 ft | 425 kts | 9° |
| 2026-04-28 11:58 | 55.19455 | 5.26763 | 34476 ft | 425 kts | 8° |
| 2026-04-28 11:59 | 55.25353 | 5.27510 | 34480 ft | 425 kts | 8° |
| 2026-04-28 11:59 | 55.31242 | 5.28258 | 34485 ft | 425 kts | 8° |
| 2026-04-28 12:00 | 55.37143 | 5.29010 | 34490 ft | 425 kts | 9° |
| 2026-04-28 12:00 | 55.43038 | 5.29764 | 34485 ft | 425 kts | 8° |
| 2026-04-28 12:01 | 55.48929 | 5.30519 | 34494 ft | 425 kts | 8° |
| 2026-04-28 12:01 | 55.54830 | 5.31278 | 34493 ft | 425 kts | 8° |
| 2026-04-28 12:02 | 55.60725 | 5.32038 | 34496 ft | 425 kts | 8° |
| 2026-04-28 12:02 | 55.66619 | 5.32801 | 34497 ft | 425 kts | 8° |
| 2026-04-28 12:03 | 55.72523 | 5.33568 | 34497 ft | 425 kts | 8° |
| 2026-04-28 12:03 | 55.78423 | 5.34335 | 34502 ft | 425 kts | 8° |
| 2026-04-28 12:04 | 55.84323 | 5.35105 | 34501 ft | 425 kts | 8° |
| 2026-04-28 12:04 | 55.90218 | 5.35877 | 34506 ft | 425 kts | 8° |
| 2026-04-28 12:05 | 55.96076 | 5.36647 | 34507 ft | 425 kts | 8° |
| 2026-04-28 12:05 | 56.01975 | 5.37424 | 34507 ft | 425 kts | 8° |
| 2026-04-28 12:06 | 56.07879 | 5.38205 | 34507 ft | 425 kts | 8° |
| 2026-04-28 12:06 | 56.13773 | 5.38986 | 34507 ft | 425 kts | 8° |
| 2026-04-28 12:07 | 56.19667 | 5.39770 | 34505 ft | 425 kts | 7° |
| 2026-04-28 12:07 | 56.25365 | 5.40530 | 34510 ft | 425 kts | 7° |